Time;durP1;ratioP1;P1;durP2;ratioP2;P2;SDS_P1;SDS_P2;PMS_P1;PMS_P2;Temp;Humidity;BMP_temperature;BMP_pressure;BME280_temperature;BME280_humidity;BME280_pressure;Samples;Min_cycle;Max_cycle;Signal;HPM_P1;HPM_P2
2021/09/30 00:00:39;;;;;;;6.65;1.60;;;9.60;99.90;;;;;;5025290;28;20477;-59
2021/09/30 00:03:04;;;;;;;3.90;1.48;;;9.60;99.90;;;;;;5017783;28;20026;-60
2021/09/30 00:05:31;;;;;;;8.13;2.55;;;9.60;99.90;;;;;;5018714;28;20040;-57
2021/09/30 00:07:56;;;;;;;6.72;1.92;;;9.60;99.90;;;;;;5023985;28;20022;-58
2021/09/30 00:10:23;;;;;;;8.45;1.77;;;9.60;99.90;;;;;;5030041;28;20424;-59
2021/09/30 00:13:05;;;;;;;4.70;2.03;;;9.70;99.90;;;;;;5026615;28;20040;-60
2021/09/30 00:15:51;;;;;;;5.68;1.58;;;9.70;99.90;;;;;;5029476;28;20451;-59
2021/09/30 00:40:37;;;;;;;9.70;1.67;;;9.50;99.90;;;;;;5023697;28;20048;-58
2021/09/30 02:19:53;;;;;;;7.25;2.22;;;8.50;99.90;;;;;;4999338;28;20028;-60
2021/09/30 02:30:14;;;;;;;10.23;3.22;;;8.30;99.90;;;;;;5021974;28;20036;-57
2021/09/30 03:00:23;;;;;;;11.35;4.07;;;7.80;99.90;;;;;;5002437;28;20175;-55
2021/09/30 03:02:52;;;;;;;10.63;3.45;;;7.80;99.90;;;;;;5026422;28;20034;-59
2021/09/30 03:05:20;;;;;;;6.38;2.83;;;7.70;99.90;;;;;;5009320;28;20033;-59
2021/09/30 03:07:47;;;;;;;14.25;3.53;;;7.70;99.90;;;;;;4992677;28;20235;-58
2021/09/30 03:10:13;;;;;;;15.90;3.15;;;7.70;99.90;;;;;;4980608;28;20029;-59
2021/09/30 03:12:40;;;;;;;10.95;3.38;;;7.70;99.90;;;;;;5025465;28;20041;-58
2021/09/30 03:17:51;;;;;;;15.60;2.72;;;7.70;99.90;;;;;;5015011;28;20036;-59
2021/09/30 03:20:33;;;;;;;9.30;3.55;;;7.60;99.90;;;;;;4998278;28;20170;-57
2021/09/30 03:23:09;;;;;;;10.55;3.05;;;7.60;99.90;;;;;;5013260;28;20029;-55
2021/09/30 03:25:35;;;;;;;3.78;2.35;;;7.60;99.90;;;;;;5024777;28;20119;-57
2021/09/30 03:28:02;;;;;;;7.43;2.20;;;7.60;99.90;;;;;;5031720;28;20056;-58
2021/09/30 03:30:29;;;;;;;10.85;3.50;;;7.60;99.90;;;;;;4986379;28;20496;-56
2021/09/30 03:32:57;;;;;;;5.93;2.78;;;7.60;99.90;;;;;;5013500;28;20079;-55
2021/09/30 03:35:24;;;;;;;9.00;3.00;;;7.70;99.90;;;;;;5026946;28;20038;-58
2021/09/30 03:37:50;;;;;;;12.63;3.05;;;7.60;99.90;;;;;;4998025;28;20034;-58
2021/09/30 03:40:16;;;;;;;7.20;2.67;;;7.50;99.90;;;;;;5001620;28;20041;-57
2021/09/30 03:42:41;;;;;;;9.48;2.10;;;7.50;99.90;;;;;;5000135;28;20014;-58
2021/09/30 03:45:08;;;;;;;8.27;3.20;;;7.50;99.90;;;;;;5014293;28;20469;-59
2021/09/30 03:47:33;;;;;;;10.60;2.65;;;7.50;99.90;;;;;;5007467;28;20401;-57
2021/09/30 03:49:59;;;;;;;8.88;2.80;;;7.60;99.90;;;;;;5018437;28;20246;-56
2021/09/30 04:00:12;;;;;;;7.35;2.72;;;7.50;99.90;;;;;;4998261;28;20132;-58
2021/09/30 04:02:38;;;;;;;12.52;2.45;;;7.40;99.90;;;;;;4997118;28;20312;-57
2021/09/30 04:05:04;;;;;;;11.50;2.80;;;7.40;99.90;;;;;;5005449;28;20029;-59
2021/09/30 04:07:30;;;;;;;4.55;2.10;;;7.40;99.90;;;;;;5006136;28;20025;-59
2021/09/30 04:09:56;;;;;;;8.45;2.53;;;7.40;99.90;;;;;;5003850;28;20104;-59
2021/09/30 04:12:21;;;;;;;5.10;2.53;;;7.40;99.90;;;;;;5012658;28;20482;-57
2021/09/30 04:14:47;;;;;;;6.80;2.25;;;7.30;99.90;;;;;;5025183;28;20095;-59
2021/09/30 04:17:13;;;;;;;11.75;2.70;;;7.30;99.90;;;;;;5009443;28;20041;-57
2021/09/30 04:19:38;;;;;;;11.35;2.30;;;7.30;99.90;;;;;;5010924;28;20033;-59
2021/09/30 04:22:04;;;;;;;7.57;2.22;;;7.20;99.90;;;;;;5002507;28;20056;-59
2021/09/30 04:24:29;;;;;;;6.82;2.85;;;7.30;99.90;;;;;;5023522;28;20030;-59
2021/09/30 04:26:55;;;;;;;6.50;2.08;;;7.20;99.90;;;;;;5003130;28;20113;-55
2021/09/30 04:29:22;;;;;;;7.25;2.33;;;7.20;99.90;;;;;;5008164;28;20028;-59
2021/09/30 04:31:48;;;;;;;9.98;2.00;;;7.30;99.90;;;;;;4996336;28;20034;-59
2021/09/30 04:34:14;;;;;;;6.10;2.33;;;7.30;99.90;;;;;;5010609;28;20090;-59
2021/09/30 04:36:40;;;;;;;6.50;2.38;;;7.30;99.90;;;;;;5005361;28;20033;-59
2021/09/30 04:39:06;;;;;;;4.22;2.15;;;7.30;99.90;;;;;;4995998;28;20029;-59
2021/09/30 04:41:32;;;;;;;7.47;2.60;;;7.30;99.90;;;;;;5009793;28;20033;-56
2021/09/30 04:43:58;;;;;;;9.73;2.65;;;7.30;99.90;;;;;;5008875;28;20477;-59
2021/09/30 04:46:24;;;;;;;6.32;3.08;;;7.30;99.90;;;;;;5025451;28;20034;-59
2021/09/30 04:48:51;;;;;;;11.48;2.50;;;7.30;99.90;;;;;;5020838;28;20045;-59
2021/09/30 04:51:17;;;;;;;13.27;2.45;;;7.30;99.90;;;;;;5006764;28;20208;-58
2021/09/30 04:53:43;;;;;;;7.22;2.10;;;7.30;99.90;;;;;;5026371;28;20029;-59
2021/09/30 04:56:11;;;;;;;6.85;2.15;;;7.30;99.90;;;;;;4971535;28;20067;-59
2021/09/30 04:58:36;;;;;;;7.53;2.47;;;7.30;99.90;;;;;;5013517;28;20033;-59
2021/09/30 05:01:03;;;;;;;6.63;2.38;;;7.40;99.90;;;;;;5010029;28;20029;-59
2021/09/30 05:03:28;;;;;;;12.10;2.60;;;7.30;99.90;;;;;;5008993;28;20045;-59
2021/09/30 05:05:54;;;;;;;10.02;2.45;;;7.20;99.90;;;;;;5022381;28;20493;-58
2021/09/30 05:08:19;;;;;;;18.65;2.65;;;7.30;99.90;;;;;;5002230;28;20093;-58
2021/09/30 05:10:47;;;;;;;5.25;2.25;;;7.30;99.90;;;;;;4996902;28;20514;-59
2021/09/30 05:13:24;;;;;;;8.30;2.47;;;7.30;99.90;;;;;;5021196;28;20515;-59
2021/09/30 05:15:49;;;;;;;7.63;2.22;;;7.20;99.90;;;;;;5022869;28;20490;-59
2021/09/30 05:18:15;;;;;;;10.00;2.70;;;7.30;99.90;;;;;;5004053;28;20025;-58
2021/09/30 05:20:41;;;;;;;9.32;2.95;;;7.30;99.90;;;;;;5003721;28;20026;-59
2021/09/30 05:23:07;;;;;;;8.65;2.72;;;7.40;99.90;;;;;;5017291;28;20025;-59
2021/09/30 05:25:33;;;;;;;9.98;2.90;;;7.50;99.90;;;;;;5020562;28;20025;-57
2021/09/30 05:27:59;;;;;;;9.13;2.30;;;7.50;99.90;;;;;;5004948;28;20021;-59
2021/09/30 05:30:25;;;;;;;6.82;2.70;;;7.50;99.90;;;;;;5009829;28;20026;-59
2021/09/30 05:32:50;;;;;;;8.75;2.60;;;7.60;99.90;;;;;;4988720;28;20041;-59
2021/09/30 05:35:17;;;;;;;4.57;2.25;;;7.60;99.90;;;;;;5021769;28;20061;-57
2021/09/30 05:37:42;;;;;;;10.10;2.58;;;7.70;99.90;;;;;;5003108;28;20504;-58
2021/09/30 05:40:15;;;;;;;6.00;2.20;;;7.70;99.90;;;;;;4969729;28;20041;-57
2021/09/30 05:42:44;;;;;;;8.07;2.53;;;7.70;99.90;;;;;;5020176;28;20056;-56
2021/09/30 05:45:14;;;;;;;9.65;2.90;;;7.70;99.90;;;;;;5023033;28;20029;-57
2021/09/30 05:47:41;;;;;;;12.70;2.50;;;7.70;99.90;;;;;;5018331;28;20439;-56
2021/09/30 05:50:07;;;;;;;10.57;2.95;;;7.70;99.90;;;;;;5008472;28;20021;-57
2021/09/30 05:52:34;;;;;;;10.63;3.97;;;7.70;99.90;;;;;;5017610;28;20028;-58
2021/09/30 05:55:00;;;;;;;9.52;2.72;;;7.70;99.90;;;;;;5012842;28;20025;-59
2021/09/30 05:57:25;;;;;;;9.48;2.85;;;7.70;99.90;;;;;;5027155;28;20044;-56
2021/09/30 05:59:51;;;;;;;9.43;2.50;;;7.70;99.90;;;;;;5027316;28;20030;-57
2021/09/30 06:07:07;;;;;;;8.82;2.72;;;7.70;99.90;;;;;;5012142;28;20080;-59
2021/09/30 06:10:39;;;;;;;6.70;1.83;;;7.70;99.90;;;;;;5007564;28;20036;-58
2021/09/30 06:13:15;;;;;;;14.23;2.60;;;7.70;99.90;;;;;;5012224;28;20038;-59
2021/09/30 06:15:43;;;;;;;10.05;2.03;;;7.70;99.90;;;;;;5031124;28;20396;-59
2021/09/30 06:18:09;;;;;;;9.32;2.72;;;7.80;99.90;;;;;;5030469;28;20034;-58
2021/09/30 06:20:37;;;;;;;11.48;4.63;;;7.80;99.90;;;;;;5033527;28;20516;-56
2021/09/30 06:23:03;;;;;;;14.85;3.75;;;7.80;99.90;;;;;;4997709;28;20045;-57
2021/09/30 06:25:29;;;;;;;8.52;2.30;;;7.80;99.90;;;;;;5028306;28;20401;-56
2021/09/30 06:27:54;;;;;;;8.07;2.78;;;7.80;99.90;;;;;;5019503;28;20038;-57
2021/09/30 06:30:21;;;;;;;14.48;2.92;;;7.90;99.90;;;;;;5012180;28;20037;-58
2021/09/30 06:32:49;;;;;;;8.98;2.33;;;7.90;99.90;;;;;;5010192;28;20033;-57
2021/09/30 06:35:15;;;;;;;8.98;2.30;;;8.00;99.90;;;;;;5006485;28;20068;-59
2021/09/30 06:37:41;;;;;;;12.50;3.67;;;8.00;99.90;;;;;;5003070;28;20053;-54
2021/09/30 06:40:07;;;;;;;10.38;3.30;;;8.10;99.90;;;;;;5028898;28;20070;-55
2021/09/30 06:42:33;;;;;;;11.68;2.88;;;8.20;99.90;;;;;;5006218;28;20109;-57
2021/09/30 06:44:58;;;;;;;7.95;2.33;;;8.30;99.90;;;;;;4985133;28;20105;-56
2021/09/30 06:47:24;;;;;;;14.05;2.88;;;8.30;99.90;;;;;;5028519;28;20742;-59
2021/09/30 06:49:49;;;;;;;12.65;2.90;;;8.40;99.90;;;;;;5008932;28;20064;-57
2021/09/30 06:52:15;;;;;;;13.02;3.00;;;8.40;99.90;;;;;;5020286;28;20029;-57
2021/09/30 06:54:41;;;;;;;9.48;2.75;;;8.50;99.90;;;;;;5031372;28;20034;-59
2021/09/30 06:57:06;;;;;;;8.60;2.40;;;8.50;99.90;;;;;;5023523;28;20030;-58
2021/09/30 06:59:34;;;;;;;5.60;2.70;;;8.60;99.90;;;;;;5019764;28;20069;-57
2021/09/30 07:02:07;;;;;;;6.82;3.10;;;8.70;99.90;;;;;;5029532;28;20128;-54
2021/09/30 07:04:36;;;;;;;13.05;2.97;;;8.70;99.90;;;;;;5002312;28;20436;-57
2021/09/30 07:07:03;;;;;;;8.48;2.95;;;8.80;99.90;;;;;;5029065;28;20189;-57
2021/09/30 07:09:30;;;;;;;17.20;3.67;;;8.80;99.90;;;;;;4999225;28;20048;-55
2021/09/30 07:11:57;;;;;;;11.32;4.38;;;8.90;99.90;;;;;;5016621;28;20032;-57
2021/09/30 07:14:22;;;;;;;9.48;4.30;;;9.00;99.90;;;;;;5019247;28;20563;-57
2021/09/30 07:16:48;;;;;;;8.55;3.60;;;9.10;99.90;;;;;;5029154;28;20073;-56
2021/09/30 07:19:13;;;;;;;13.52;3.67;;;9.30;99.90;;;;;;5030264;28;20547;-59
2021/09/30 07:21:39;;;;;;;20.83;3.20;;;9.40;99.90;;;;;;5023706;28;20053;-59
2021/09/30 07:24:05;;;;;;;12.90;3.83;;;9.60;99.90;;;;;;5021570;28;20030;-56
2021/09/30 07:26:31;;;;;;;15.32;3.90;;;9.70;99.90;;;;;;5020823;28;20030;-59
2021/09/30 07:28:56;;;;;;;13.32;3.65;;;9.90;99.90;;;;;;5007826;28;20400;-57
2021/09/30 07:31:22;;;;;;;17.95;3.88;;;10.00;99.90;;;;;;5018703;28;20037;-58
2021/09/30 07:33:47;;;;;;;11.50;2.97;;;10.00;99.90;;;;;;5024581;28;20095;-57
2021/09/30 07:36:13;;;;;;;12.82;3.40;;;10.10;99.90;;;;;;5027979;28;20088;-59
2021/09/30 07:38:40;;;;;;;10.68;2.95;;;10.30;99.90;;;;;;5028284;28;20030;-55
2021/09/30 07:41:06;;;;;;;13.20;4.25;;;10.40;99.90;;;;;;5026209;28;20037;-54
2021/09/30 07:43:32;;;;;;;13.23;3.30;;;10.40;99.90;;;;;;5002971;28;20540;-55
2021/09/30 07:45:57;;;;;;;15.43;4.65;;;10.50;99.90;;;;;;5026209;28;20018;-57
2021/09/30 07:48:23;;;;;;;13.60;3.33;;;10.60;99.90;;;;;;5023763;28;20061;-55
2021/09/30 07:50:49;;;;;;;17.42;4.07;;;10.80;99.90;;;;;;5016436;28;20033;-56
2021/09/30 07:53:15;;;;;;;17.73;3.60;;;10.80;99.90;;;;;;5026675;28;20038;-57
2021/09/30 07:55:41;;;;;;;14.25;3.42;;;10.80;99.90;;;;;;5026920;28;20036;-57
2021/09/30 07:58:09;;;;;;;9.32;2.90;;;10.90;99.90;;;;;;5022926;28;20034;-56
2021/09/30 08:00:37;;;;;;;14.13;3.25;;;11.00;99.90;;;;;;5014928;28;20382;-55
2021/09/30 08:03:04;;;;;;;10.77;3.00;;;11.10;99.90;;;;;;5022933;28;20046;-56
2021/09/30 08:05:29;;;;;;;16.20;3.45;;;11.20;99.90;;;;;;5025774;28;20025;-57
2021/09/30 08:07:55;;;;;;;8.40;3.13;;;11.20;99.90;;;;;;5025452;28;20022;-55
2021/09/30 08:10:20;;;;;;;12.15;3.20;;;11.30;99.90;;;;;;5028367;28;20025;-55
2021/09/30 08:12:46;;;;;;;12.80;3.20;;;11.40;99.90;;;;;;5024139;28;20029;-55
2021/09/30 08:15:12;;;;;;;16.45;3.58;;;11.50;99.90;;;;;;5027524;28;20036;-55
2021/09/30 08:17:38;;;;;;;13.15;3.28;;;11.70;99.90;;;;;;5024512;28;20401;-55
2021/09/30 08:20:05;;;;;;;12.85;3.15;;;11.80;99.90;;;;;;5024410;28;20541;-56
2021/09/30 08:22:30;;;;;;;11.68;3.50;;;11.80;99.90;;;;;;5022523;28;20094;-54
2021/09/30 08:24:56;;;;;;;14.95;3.75;;;11.90;99.90;;;;;;5023474;28;20029;-55
2021/09/30 08:27:21;;;;;;;16.25;3.28;;;12.00;99.90;;;;;;5027942;28;20504;-53
2021/09/30 08:29:47;;;;;;;16.52;3.50;;;12.10;99.90;;;;;;5024962;28;20036;-53
2021/09/30 08:32:12;;;;;;;13.05;3.67;;;12.20;99.90;;;;;;5018272;28;20026;-54
2021/09/30 08:34:38;;;;;;;16.80;2.97;;;12.20;99.90;;;;;;5025878;28;20026;-54
2021/09/30 08:37:04;;;;;;;8.77;2.50;;;12.30;99.90;;;;;;5027057;28;20054;-56
2021/09/30 08:39:29;;;;;;;17.88;3.60;;;12.40;99.90;;;;;;5028406;28;20022;-57
2021/09/30 08:41:55;;;;;;;11.77;2.75;;;12.40;99.90;;;;;;5020224;28;20034;-55
2021/09/30 08:44:21;;;;;;;12.02;2.92;;;12.50;99.90;;;;;;5025853;28;20084;-54
2021/09/30 08:46:47;;;;;;;19.15;3.05;;;12.60;99.90;;;;;;5030490;28;20432;-55
2021/09/30 08:49:13;;;;;;;8.60;1.70;;;12.60;99.90;;;;;;5010166;28;20038;-56
2021/09/30 08:51:38;;;;;;;11.95;2.63;;;12.70;99.90;;;;;;5026698;28;20112;-57
2021/09/30 08:54:04;;;;;;;9.77;2.30;;;12.70;99.90;;;;;;5028671;28;20100;-57
2021/09/30 08:56:33;;;;;;;10.73;2.15;;;12.80;99.90;;;;;;5023501;28;20034;-57
2021/09/30 08:59:23;;;;;;;11.07;2.13;;;13.00;99.90;;;;;;5021378;28;20080;-57
2021/09/30 09:02:04;;;;;;;9.20;1.77;;;13.10;99.90;;;;;;5020766;28;20512;-56
2021/09/30 09:04:29;;;;;;;9.27;2.17;;;13.20;99.90;;;;;;5025200;28;20104;-56
2021/09/30 09:07:02;;;;;;;8.35;2.63;;;13.30;99.90;;;;;;5020109;28;20109;-57
2021/09/30 09:09:28;;;;;;;10.75;2.67;;;13.30;99.90;;;;;;5022934;28;20099;-58
2021/09/30 09:11:56;;;;;;;19.35;2.40;;;13.50;99.90;;;;;;5012632;28;20037;-56
2021/09/30 09:14:29;;;;;;;9.93;2.30;;;13.50;99.90;;;;;;5022551;28;20078;-56
2021/09/30 09:17:00;;;;;;;6.80;1.88;;;13.60;99.90;;;;;;5022888;28;20025;-55
2021/09/30 09:19:32;;;;;;;10.55;1.90;;;13.60;99.90;;;;;;5026272;28;20033;-56
2021/09/30 09:22:06;;;;;;;8.85;1.30;;;13.70;99.90;;;;;;5021327;28;20058;-57
2021/09/30 09:24:32;;;;;;;8.40;1.58;;;13.70;99.90;;;;;;5023058;28;20486;-57
2021/09/30 09:26:59;;;;;;;13.30;1.50;;;13.70;99.90;;;;;;5029486;28;20060;-58
2021/09/30 09:29:29;;;;;;;10.70;1.70;;;13.80;99.90;;;;;;5025325;28;20408;-57
2021/09/30 09:31:55;;;;;;;7.30;1.75;;;13.90;99.90;;;;;;5011793;28;20087;-56
2021/09/30 09:34:33;;;;;;;10.80;1.73;;;14.00;99.90;;;;;;5011866;28;20452;-57
2021/09/30 09:37:32;;;;;;;5.95;1.60;;;14.10;99.90;;;;;;5024130;28;20033;-56
2021/09/30 09:40:11;;;;;;;8.23;1.40;;;14.10;99.90;;;;;;5023123;28;20034;-56
2021/09/30 09:42:37;;;;;;;9.15;1.27;;;14.30;99.90;;;;;;5023656;28;20489;-56
2021/09/30 09:45:10;;;;;;;17.77;3.42;;;14.40;99.90;;;;;;5016458;28;20025;-55
2021/09/30 09:47:38;;;;;;;7.75;1.30;;;14.30;99.90;;;;;;5027992;28;20030;-57
2021/09/30 09:50:17;;;;;;;7.28;2.20;;;14.50;99.90;;;;;;5015646;28;20109;-56
2021/09/30 09:52:46;;;;;;;16.42;1.80;;;14.60;99.90;;;;;;5016426;28;20490;-59
2021/09/30 09:55:26;;;;;;;6.38;1.40;;;15.00;99.90;;;;;;5022862;28;20045;-56
2021/09/30 09:58:08;;;;;;;7.60;1.73;;;15.20;99.90;;;;;;5023930;28;20040;-57
2021/09/30 10:00:55;;;;;;;5.20;1.05;;;15.20;99.90;;;;;;5028302;28;20029;-56
2021/09/30 10:03:31;;;;;;;8.15;1.13;;;15.30;99.90;;;;;;5006442;28;20033;-55
2021/09/30 10:06:05;;;;;;;8.55;2.05;;;15.30;99.90;;;;;;5002734;28;20030;-56
2021/09/30 10:08:32;;;;;;;7.30;1.23;;;15.30;99.90;;;;;;5014841;28;20057;-53
2021/09/30 10:10:59;;;;;;;9.77;1.73;;;15.20;99.90;;;;;;5024907;28;20033;-56
2021/09/30 10:13:27;;;;;;;6.63;1.75;;;15.00;99.90;;;;;;5021075;28;20037;-55
2021/09/30 10:15:54;;;;;;;6.55;1.40;;;15.00;99.90;;;;;;5020314;28;20041;-56
2021/09/30 10:18:22;;;;;;;14.73;1.75;;;15.10;99.90;;;;;;5025848;28;20029;-57
2021/09/30 10:20:49;;;;;;;6.85;1.13;;;15.40;99.90;;;;;;5018355;28;20529;-54
2021/09/30 10:23:24;;;;;;;5.57;1.40;;;15.60;99.90;;;;;;5019419;28;20030;-57
2021/09/30 10:25:52;;;;;;;10.32;1.30;;;15.50;99.90;;;;;;5026738;28;20033;-56
2021/09/30 10:28:18;;;;;;;9.02;1.10;;;15.50;99.90;;;;;;5025960;28;20057;-56
2021/09/30 10:30:47;;;;;;;9.32;1.52;;;15.40;99.90;;;;;;5028337;28;20035;-54
2021/09/30 10:33:19;;;;;;;4.75;1.23;;;15.40;99.90;;;;;;5006346;28;20060;-55
2021/09/30 10:35:47;;;;;;;9.48;1.77;;;15.20;99.90;;;;;;5021579;28;20029;-55
2021/09/30 10:38:33;;;;;;;12.80;1.60;;;15.20;99.90;;;;;;5019228;28;20033;-54
2021/09/30 10:41:01;;;;;;;6.30;1.73;;;15.30;99.90;;;;;;5023233;28;20061;-54
2021/09/30 10:43:33;;;;;;;9.10;1.08;;;15.20;99.90;;;;;;5025426;28;20084;-59
2021/09/30 10:46:00;;;;;;;7.95;1.00;;;15.40;99.90;;;;;;5024737;28;20548;-54
2021/09/30 10:48:30;;;;;;;7.10;1.38;;;15.40;99.90;;;;;;5025203;28;20477;-58
2021/09/30 10:51:05;;;;;;;3.65;1.05;;;15.40;99.90;;;;;;5025929;28;20039;-57
2021/09/30 10:53:46;;;;;;;7.38;1.52;;;15.40;99.90;;;;;;5027855;28;20577;-54
2021/09/30 10:56:24;;;;;;;5.07;1.00;;;15.60;99.90;;;;;;5025735;28;20432;-56
2021/09/30 10:58:50;;;;;;;9.75;1.33;;;15.70;99.90;;;;;;5022674;28;20546;-56
2021/09/30 11:01:15;;;;;;;8.23;1.15;;;15.70;99.90;;;;;;5026717;28;20113;-56
2021/09/30 11:04:05;;;;;;;12.15;1.50;;;15.70;99.90;;;;;;5010272;28;20117;-52
2021/09/30 11:06:31;;;;;;;9.63;1.27;;;15.80;99.90;;;;;;5026658;28;20080;-55
2021/09/30 11:09:17;;;;;;;6.75;0.82;;;16.00;99.90;;;;;;5027845;28;20105;-55
2021/09/30 11:11:49;;;;;;;7.88;1.30;;;16.20;99.90;;;;;;5028815;28;20021;-53
2021/09/30 11:14:17;;;;;;;7.63;1.13;;;16.40;99.90;;;;;;5031708;28;20057;-54
2021/09/30 11:16:48;;;;;;;11.30;1.33;;;16.40;99.90;;;;;;5026470;28;20036;-53
2021/09/30 11:19:46;;;;;;;4.88;1.05;;;16.30;99.90;;;;;;5026160;28;20021;-55
2021/09/30 11:22:13;;;;;;;4.45;0.88;;;16.20;99.90;;;;;;4995005;28;20046;-56
2021/09/30 11:24:57;;;;;;;9.77;1.52;;;16.20;99.90;;;;;;5025822;28;20038;-57
2021/09/30 11:27:29;;;;;;;7.50;1.00;;;16.10;99.90;;;;;;5011115;28;20164;-56
2021/09/30 11:30:23;;;;;;;10.63;1.00;;;16.10;99.90;;;;;;5010020;28;20110;-57
2021/09/30 11:32:48;;;;;;;5.05;0.95;;;16.10;99.90;;;;;;5028656;28;20507;-58
2021/09/30 11:35:14;;;;;;;3.17;1.02;;;16.30;99.90;;;;;;5029149;28;20025;-56
2021/09/30 11:37:44;;;;;;;7.22;1.45;;;16.40;99.90;;;;;;5028995;28;20037;-57
2021/09/30 11:40:16;;;;;;;6.05;1.33;;;16.40;99.90;;;;;;5028954;28;20024;-56
2021/09/30 11:42:44;;;;;;;12.30;1.17;;;16.40;99.90;;;;;;5029745;28;20017;-56
2021/09/30 11:45:22;;;;;;;6.82;1.17;;;16.30;99.90;;;;;;5025558;28;20103;-55
2021/09/30 11:47:49;;;;;;;4.80;0.90;;;16.10;99.90;;;;;;5029597;28;20025;-55
2021/09/30 11:50:22;;;;;;;5.60;1.15;;;16.20;99.90;;;;;;5022883;28;20509;-53
2021/09/30 11:53:00;;;;;;;8.90;1.20;;;16.20;99.90;;;;;;5030046;28;20037;-54
2021/09/30 11:55:28;;;;;;;10.23;1.08;;;16.10;99.90;;;;;;5030834;28;20449;-51
2021/09/30 11:57:59;;;;;;;5.82;1.00;;;16.20;99.90;;;;;;5028025;28;20536;-53
2021/09/30 12:00:26;;;;;;;4.30;1.20;;;16.30;99.90;;;;;;5028061;28;20037;-54
2021/09/30 12:03:03;;;;;;;7.88;1.15;;;16.00;99.90;;;;;;5030431;28;20101;-54
2021/09/30 12:05:32;;;;;;;5.32;0.90;;;16.10;99.90;;;;;;5027077;28;20045;-56
2021/09/30 12:07:59;;;;;;;7.53;1.15;;;16.10;99.90;;;;;;5027198;28;20026;-56
2021/09/30 12:10:26;;;;;;;3.10;0.93;;;16.30;99.90;;;;;;5020097;28;20029;-57
2021/09/30 12:12:52;;;;;;;10.90;2.17;;;16.40;99.90;;;;;;5022544;28;20037;-55
2021/09/30 12:15:18;;;;;;;11.68;1.25;;;16.50;99.90;;;;;;5016452;28;20044;-56
2021/09/30 12:17:43;;;;;;;6.18;1.48;;;16.40;99.90;;;;;;5023018;28;20075;-57
2021/09/30 12:20:12;;;;;;;4.38;0.90;;;16.30;99.90;;;;;;5027488;28;20022;-58
2021/09/30 12:22:42;;;;;;;3.15;0.90;;;16.40;99.90;;;;;;5019651;28;20033;-56
2021/09/30 12:25:16;;;;;;;8.80;1.83;;;16.30;99.90;;;;;;5017861;28;20022;-57
2021/09/30 12:27:45;;;;;;;10.50;1.88;;;16.40;99.90;;;;;;5012984;28;20025;-56
2021/09/30 12:30:26;;;;;;;9.02;0.93;;;16.50;99.90;;;;;;5011106;28;20033;-56
2021/09/30 12:32:59;;;;;;;4.53;0.90;;;16.40;99.90;;;;;;5024107;28;20021;-56
2021/09/30 12:35:28;;;;;;;7.93;1.35;;;16.40;99.90;;;;;;5026961;28;20926;-53
2021/09/30 12:37:57;;;;;;;3.65;1.27;;;16.40;99.90;;;;;;5023432;28;20055;-57
2021/09/30 12:40:28;;;;;;;5.22;1.08;;;16.30;99.90;;;;;;5018439;28;20544;-57
2021/09/30 12:43:04;;;;;;;7.20;1.10;;;16.50;99.90;;;;;;5022197;28;20029;-57
2021/09/30 12:45:32;;;;;;;6.88;1.27;;;16.50;99.90;;;;;;5022220;28;20563;-57
2021/09/30 12:48:06;;;;;;;5.40;1.45;;;16.70;99.90;;;;;;5015202;28;20068;-58
2021/09/30 12:50:58;;;;;;;7.47;1.27;;;16.70;99.90;;;;;;5026469;28;20026;-58
2021/09/30 12:53:24;;;;;;;5.78;1.20;;;16.80;99.90;;;;;;5020600;28;20029;-57
2021/09/30 12:55:51;;;;;;;9.88;1.20;;;16.60;99.90;;;;;;5024401;28;20045;-57
2021/09/30 12:58:35;;;;;;;10.52;1.13;;;16.60;99.90;;;;;;5014201;28;20493;-57
2021/09/30 13:01:20;;;;;;;9.50;1.02;;;16.60;99.90;;;;;;5025496;28;20401;-58
2021/09/30 13:04:02;;;;;;;13.00;1.02;;;16.40;99.90;;;;;;5024861;28;20101;-58
2021/09/30 13:06:28;;;;;;;9.20;1.85;;;16.20;99.90;;;;;;5014509;28;20022;-57
2021/09/30 13:08:53;;;;;;;7.70;1.10;;;16.20;99.90;;;;;;5019130;28;20032;-59
2021/09/30 13:11:39;;;;;;;6.57;1.35;;;16.30;99.90;;;;;;5018351;28;20022;-58
2021/09/30 13:14:24;;;;;;;5.82;1.13;;;16.20;99.90;;;;;;5018629;28;20488;-57
2021/09/30 13:16:56;;;;;;;6.80;1.13;;;16.30;99.90;;;;;;5017458;28;20393;-59
2021/09/30 13:19:43;;;;;;;6.90;1.17;;;16.40;99.90;;;;;;5021926;28;20056;-57
2021/09/30 13:22:10;;;;;;;11.13;1.63;;;16.40;99.90;;;;;;5020735;28;20524;-55
2021/09/30 13:24:38;;;;;;;2.38;0.90;;;16.30;99.90;;;;;;5019291;28;20037;-56
2021/09/30 13:27:06;;;;;;;10.20;0.90;;;16.30;99.90;;;;;;5011846;28;20120;-56
2021/09/30 13:29:32;;;;;;;7.50;1.00;;;16.20;99.90;;;;;;5019564;28;20537;-57
2021/09/30 13:31:58;;;;;;;7.53;1.05;;;16.30;99.90;;;;;;5022406;28;20120;-57
2021/09/30 13:34:24;;;;;;;5.25;1.00;;;16.30;99.90;;;;;;5018172;28;20040;-58
2021/09/30 13:36:55;;;;;;;10.02;1.25;;;16.30;99.90;;;;;;5021088;28;20113;-56
2021/09/30 13:39:20;;;;;;;4.57;1.13;;;16.20;99.90;;;;;;5019192;28;20041;-53
2021/09/30 13:41:46;;;;;;;10.18;1.23;;;16.10;99.90;;;;;;5019218;28;20060;-59
2021/09/30 13:44:12;;;;;;;4.97;0.95;;;16.20;99.90;;;;;;5016496;28;20817;-59
2021/09/30 13:46:38;;;;;;;7.18;1.15;;;16.10;99.90;;;;;;5024729;28;20115;-58
2021/09/30 13:49:04;;;;;;;6.82;1.60;;;16.00;99.90;;;;;;5011266;28;20059;-58
2021/09/30 13:51:31;;;;;;;7.25;0.85;;;16.00;99.90;;;;;;5015129;28;20030;-57
2021/09/30 13:53:58;;;;;;;7.88;1.30;;;16.00;99.90;;;;;;5019565;28;20026;-58
2021/09/30 13:56:24;;;;;;;8.85;1.10;;;16.00;99.90;;;;;;5003279;28;20026;-57
2021/09/30 13:58:50;;;;;;;5.45;1.20;;;16.00;99.90;;;;;;5010843;28;20053;-56
2021/09/30 14:01:16;;;;;;;6.38;0.90;;;16.00;99.90;;;;;;5027757;28;20481;-55
2021/09/30 14:03:41;;;;;;;4.07;0.80;;;16.00;99.90;;;;;;5026639;28;20021;-57
2021/09/30 14:06:07;;;;;;;9.15;1.65;;;16.10;99.90;;;;;;5018444;28;20025;-58
2021/09/30 14:08:33;;;;;;;6.55;1.08;;;16.20;99.90;;;;;;5010605;28;20077;-58
2021/09/30 14:11:00;;;;;;;5.45;0.82;;;16.10;99.90;;;;;;5024121;28;20013;-58
2021/09/30 14:13:26;;;;;;;8.35;1.27;;;16.10;99.90;;;;;;5022643;28;20038;-57
2021/09/30 14:15:51;;;;;;;7.60;1.40;;;16.10;99.90;;;;;;5027621;28;20036;-58
2021/09/30 14:18:17;;;;;;;8.57;1.17;;;16.10;99.90;;;;;;5029633;28;20057;-58
2021/09/30 14:20:44;;;;;;;5.55;1.63;;;16.20;99.90;;;;;;5028988;28;20489;-57
2021/09/30 14:23:10;;;;;;;7.30;1.60;;;16.20;99.90;;;;;;5021550;28;20557;-57
2021/09/30 14:25:35;;;;;;;14.35;1.50;;;16.30;99.90;;;;;;5022928;28;20035;-56
2021/09/30 14:28:01;;;;;;;7.82;1.45;;;16.40;99.90;;;;;;5029725;28;20060;-57
2021/09/30 14:30:26;;;;;;;5.75;1.10;;;16.50;99.90;;;;;;5029443;28;20393;-55
2021/09/30 14:32:53;;;;;;;8.60;1.10;;;16.50;99.90;;;;;;5024684;28;20116;-55
2021/09/30 14:35:18;;;;;;;4.68;1.05;;;16.60;99.90;;;;;;5026670;28;20493;-57
2021/09/30 14:37:45;;;;;;;7.85;1.13;;;16.50;99.90;;;;;;5031014;28;20040;-56
2021/09/30 14:40:11;;;;;;;5.70;1.23;;;16.50;99.90;;;;;;5023006;28;20072;-55
2021/09/30 14:42:37;;;;;;;5.00;1.00;;;16.40;99.90;;;;;;5015658;28;20030;-57
2021/09/30 14:45:03;;;;;;;5.70;1.00;;;16.40;99.90;;;;;;5027340;28;20032;-58
2021/09/30 14:47:29;;;;;;;9.25;1.20;;;16.30;99.90;;;;;;5021384;28;20029;-58
2021/09/30 14:49:54;;;;;;;6.22;0.90;;;16.30;99.90;;;;;;5030068;28;20022;-58
2021/09/30 14:52:20;;;;;;;7.78;1.17;;;16.30;99.90;;;;;;5020352;28;20057;-57
2021/09/30 14:54:48;;;;;;;4.80;0.93;;;16.20;99.90;;;;;;5024681;28;20061;-57
2021/09/30 14:57:14;;;;;;;5.20;1.17;;;16.20;99.90;;;;;;5007153;28;20038;-55
2021/09/30 14:59:40;;;;;;;6.15;1.30;;;16.10;99.90;;;;;;5027019;28;20033;-53
2021/09/30 15:02:05;;;;;;;9.85;2.00;;;16.10;99.90;;;;;;5017521;28;20050;-57
2021/09/30 15:04:31;;;;;;;12.63;1.15;;;16.10;99.90;;;;;;5026979;28;20033;-57
2021/09/30 15:06:56;;;;;;;5.15;1.10;;;16.10;99.90;;;;;;5027165;28;20063;-54
2021/09/30 15:09:22;;;;;;;4.13;0.80;;;16.00;99.90;;;;;;5021387;28;20105;-53
2021/09/30 15:11:48;;;;;;;8.32;1.30;;;16.00;99.90;;;;;;5027797;28;20121;-56
2021/09/30 15:14:13;;;;;;;6.30;1.25;;;16.00;99.90;;;;;;5028493;28;20037;-55
2021/09/30 15:17:02;;;;;;;8.57;1.10;;;15.90;99.90;;;;;;5027339;28;20026;-57
2021/09/30 15:19:35;;;;;;;8.75;1.20;;;15.90;99.90;;;;;;5014169;28;20165;-54
2021/09/30 15:22:01;;;;;;;8.88;3.22;;;15.80;99.90;;;;;;5024785;28;20084;-56
2021/09/30 15:24:26;;;;;;;5.82;1.73;;;15.80;99.90;;;;;;5015517;28;20109;-55
2021/09/30 15:26:52;;;;;;;5.03;1.23;;;15.80;99.90;;;;;;5022796;28;20046;-55
2021/09/30 15:29:19;;;;;;;5.10;0.93;;;15.80;99.90;;;;;;5019881;28;20033;-55
2021/09/30 15:31:46;;;;;;;2.75;1.38;;;15.70;99.90;;;;;;5021405;28;20124;-56
2021/09/30 15:34:16;;;;;;;4.15;0.75;;;15.70;99.90;;;;;;5003156;28;20116;-53
2021/09/30 15:36:43;;;;;;;5.00;1.25;;;15.70;99.90;;;;;;5023777;28;20029;-58
2021/09/30 15:39:09;;;;;;;6.63;1.73;;;15.60;99.90;;;;;;5007839;28;20056;-57
2021/09/30 15:41:37;;;;;;;14.25;3.78;;;15.60;99.90;;;;;;5018598;28;20120;-56
2021/09/30 15:44:03;;;;;;;6.78;1.52;;;15.50;99.90;;;;;;5024398;28;20044;-56
2021/09/30 15:46:30;;;;;;;7.90;1.02;;;15.50;99.90;;;;;;5030064;28;20049;-56